Time;durP1;ratioP1;P1;durP2;ratioP2;P2;SDS_P1;SDS_P2;PMS_P1;PMS_P2;Temp;Humidity;BMP_temperature;BMP_pressure;BME280_temperature;BME280_humidity;BME280_pressure;Samples;Min_cycle;Max_cycle;Signal;HPM_P1;HPM_P2
2021/09/19 00:02:05;;;;;;;;;6.50;6.25;;;;;;;;4989916;28;45374;-74
2021/09/19 00:04:30;;;;;;;;;5.75;5.75;;;;;;;;4991623;28;45354;-74
2021/09/19 00:06:56;;;;;;;;;7.75;7.75;;;;;;;;4991619;28;45553;-73
2021/09/19 00:09:21;;;;;;;;;7.75;4.75;;;;;;;;4993423;28;46243;-73
2021/09/19 00:11:47;;;;;;;;;4.75;4.75;;;;;;;;4991018;28;45453;-72
2021/09/19 00:14:13;;;;;;;;;5.25;5.25;;;;;;;;4991274;28;45400;-74
2021/09/19 00:16:38;;;;;;;;;8.75;7.00;;;;;;;;4990556;28;45476;-73
2021/09/19 00:19:03;;;;;;;;;7.00;5.75;;;;;;;;4990902;28;46232;-73
2021/09/19 00:21:29;;;;;;;;;4.25;4.25;;;;;;;;4993253;28;45248;-74
2021/09/19 00:23:54;;;;;;;;;9.00;6.25;;;;;;;;4990949;28;45336;-73
2021/09/19 00:26:19;;;;;;;;;7.75;7.75;;;;;;;;4991195;28;45335;-73
2021/09/19 00:28:44;;;;;;;;;5.00;5.00;;;;;;;;4991204;28;45433;-73
2021/09/19 00:31:09;;;;;;;;;7.50;6.00;;;;;;;;4990721;28;45498;-73
2021/09/19 00:33:35;;;;;;;;;5.00;5.00;;;;;;;;4993043;28;45396;-73
2021/09/19 00:36:00;;;;;;;;;6.50;6.50;;;;;;;;4991017;28;45533;-74
2021/09/19 00:38:25;;;;;;;;;7.25;4.25;;;;;;;;4989284;28;46542;-73
2021/09/19 00:40:50;;;;;;;;;6.00;6.00;;;;;;;;4989808;28;45341;-74
2021/09/19 00:43:15;;;;;;;;;5.25;5.00;;;;;;;;4991303;28;45323;-73
2021/09/19 00:45:41;;;;;;;;;7.00;5.25;;;;;;;;4991690;28;45388;-73
2021/09/19 00:48:06;;;;;;;;;4.25;4.25;;;;;;;;4990968;28;46557;-73
2021/09/19 00:50:31;;;;;;;;;8.25;7.75;;;;;;;;4990959;28;45440;-73
2021/09/19 00:52:56;;;;;;;;;6.75;6.25;;;;;;;;4991023;28;45434;-73
2021/09/19 00:55:22;;;;;;;;;4.50;4.50;;;;;;;;4991399;28;45798;-73
2021/09/19 00:57:48;;;;;;;;;6.00;5.00;;;;;;;;4992189;28;46059;-73
2021/09/19 01:00:19;;;;;;;;;7.25;7.25;;;;;;;;4991659;28;45383;-73
2021/09/19 01:02:44;;;;;;;;;7.25;7.00;;;;;;;;4990778;28;45378;-73
2021/09/19 01:05:12;;;;;;;;;4.75;4.75;;;;;;;;4990862;28;45329;-73
2021/09/19 01:07:37;;;;;;;;;7.50;6.50;;;;;;;;4990669;28;46186;-73
2021/09/19 01:10:03;;;;;;;;;6.25;5.75;;;;;;;;4990582;28;45346;-73
2021/09/19 01:12:28;;;;;;;;;8.00;5.75;;;;;;;;4992791;28;45538;-73
2021/09/19 01:14:54;;;;;;;;;6.00;6.00;;;;;;;;4988790;28;45291;-73
2021/09/19 01:17:20;;;;;;;;;5.50;5.50;;;;;;;;4989131;28;45471;-73
2021/09/19 01:19:47;;;;;;;;;7.50;7.25;;;;;;;;4989331;28;45439;-73
2021/09/19 01:22:12;;;;;;;;;10.00;8.75;;;;;;;;4990542;28;45434;-73
2021/09/19 01:24:38;;;;;;;;;6.75;6.75;;;;;;;;4992947;28;45370;-73
2021/09/19 01:27:03;;;;;;;;;7.25;7.25;;;;;;;;4990261;28;45235;-73
2021/09/19 01:29:29;;;;;;;;;7.00;7.00;;;;;;;;4990353;28;45465;-72
2021/09/19 01:31:54;;;;;;;;;6.50;6.50;;;;;;;;4990537;28;45299;-72
2021/09/19 01:34:19;;;;;;;;;6.75;6.75;;;;;;;;4990836;28;45228;-72
2021/09/19 01:36:44;;;;;;;;;7.50;7.50;;;;;;;;4992182;28;46100;-72
2021/09/19 01:39:10;;;;;;;;;8.00;7.25;;;;;;;;4991350;28;45444;-73
2021/09/19 01:41:36;;;;;;;;;9.75;9.50;;;;;;;;4990465;28;45438;-72
2021/09/19 01:44:02;;;;;;;;;9.00;7.25;;;;;;;;4990185;28;46119;-72
2021/09/19 01:46:27;;;;;;;;;9.50;8.50;;;;;;;;4990164;28;47386;-73
2021/09/19 01:48:53;;;;;;;;;7.50;5.75;;;;;;;;4990650;28;45505;-73
2021/09/19 01:51:18;;;;;;;;;8.00;8.00;;;;;;;;4991835;28;45217;-72
2021/09/19 01:53:43;;;;;;;;;8.25;5.50;;;;;;;;4990264;28;45221;-72
2021/09/19 01:56:09;;;;;;;;;7.50;6.25;;;;;;;;4988481;28;46164;-72
2021/09/19 01:58:44;;;;;;;;;10.25;7.50;;;;;;;;4990513;28;47801;-72
2021/09/19 02:01:09;;;;;;;;;6.75;6.75;;;;;;;;4993218;28;45442;-72
2021/09/19 02:03:36;;;;;;;;;10.00;8.50;;;;;;;;4995380;28;45432;-72
2021/09/19 02:06:01;;;;;;;;;6.00;6.00;;;;;;;;4992963;28;46318;-72
2021/09/19 02:08:26;;;;;;;;;5.00;5.00;;;;;;;;4992844;28;45364;-72
2021/09/19 02:10:51;;;;;;;;;11.75;9.00;;;;;;;;4992999;28;45405;-72
2021/09/19 02:13:17;;;;;;;;;8.00;8.00;;;;;;;;4992696;28;45486;-72
2021/09/19 02:15:42;;;;;;;;;8.50;7.50;;;;;;;;4994829;28;47106;-72
2021/09/19 02:18:07;;;;;;;;;7.00;7.00;;;;;;;;4993226;28;45365;-72
2021/09/19 02:20:32;;;;;;;;;7.75;7.75;;;;;;;;4992799;28;45784;-72
2021/09/19 02:22:57;;;;;;;;;9.50;6.25;;;;;;;;4975411;28;45503;-72
2021/09/19 02:25:23;;;;;;;;;9.50;9.50;;;;;;;;4992743;28;45383;-73
2021/09/19 02:27:48;;;;;;;;;9.50;8.25;;;;;;;;4993381;28;45358;-73
2021/09/19 02:30:14;;;;;;;;;7.25;7.00;;;;;;;;4993743;28;45435;-72
2021/09/19 02:32:39;;;;;;;;;7.00;7.00;;;;;;;;4992391;28;45500;-72
2021/09/19 02:35:06;;;;;;;;;7.00;7.00;;;;;;;;4990496;28;46107;-72
2021/09/19 02:37:31;;;;;;;;;8.00;8.00;;;;;;;;4991734;28;45648;-72
2021/09/19 02:39:56;;;;;;;;;14.25;13.00;;;;;;;;4992762;28;45307;-73
2021/09/19 02:42:22;;;;;;;;;12.50;11.50;;;;;;;;4994723;28;45552;-72
2021/09/19 02:44:47;;;;;;;;;8.75;8.75;;;;;;;;4992499;28;45788;-73
2021/09/19 02:47:12;;;;;;;;;12.75;11.75;;;;;;;;4992321;28;45584;-72
2021/09/19 02:49:37;;;;;;;;;10.50;10.25;;;;;;;;4992473;28;45923;-73
2021/09/19 02:52:03;;;;;;;;;11.75;10.00;;;;;;;;4992782;28;45197;-72
2021/09/19 02:54:28;;;;;;;;;11.75;9.50;;;;;;;;4994570;28;45298;-73
2021/09/19 02:56:53;;;;;;;;;11.00;11.00;;;;;;;;4991647;28;45349;-72
2021/09/19 02:59:19;;;;;;;;;10.50;9.75;;;;;;;;4992596;28;45567;-72
2021/09/19 03:01:45;;;;;;;;;11.25;10.25;;;;;;;;4992425;28;45313;-72
2021/09/19 03:04:10;;;;;;;;;13.00;11.25;;;;;;;;4992474;28;45395;-73
2021/09/19 03:06:35;;;;;;;;;12.00;10.25;;;;;;;;4994358;28;45484;-72
2021/09/19 03:09:00;;;;;;;;;14.25;12.25;;;;;;;;4974127;28;45350;-73
2021/09/19 03:11:26;;;;;;;;;9.25;9.25;;;;;;;;4991683;28;45384;-72
2021/09/19 03:13:53;;;;;;;;;12.00;12.00;;;;;;;;4990791;28;45438;-73
2021/09/19 03:16:18;;;;;;;;;15.50;12.25;;;;;;;;4990658;28;45421;-71
2021/09/19 03:18:43;;;;;;;;;12.75;11.25;;;;;;;;4993509;28;45428;-72
2021/09/19 03:21:09;;;;;;;;;10.25;10.25;;;;;;;;4992938;28;45584;-73
2021/09/19 03:23:34;;;;;;;;;12.75;12.25;;;;;;;;4991927;28;46162;-72
2021/09/19 03:25:59;;;;;;;;;9.25;9.25;;;;;;;;4973983;28;45512;-73
2021/09/19 03:28:24;;;;;;;;;9.50;9.50;;;;;;;;4992282;28;45380;-73
2021/09/19 03:30:49;;;;;;;;;15.50;12.00;;;;;;;;4992765;28;45497;-73
2021/09/19 03:33:14;;;;;;;;;12.25;11.50;;;;;;;;4993376;28;46376;-74
2021/09/19 03:35:40;;;;;;;;;12.25;12.00;;;;;;;;4992053;28;45637;-72
2021/09/19 03:38:05;;;;;;;;;12.75;12.00;;;;;;;;4992122;28;45356;-71
2021/09/19 03:40:30;;;;;;;;;15.00;12.25;;;;;;;;4974128;28;45529;-74
2021/09/19 03:42:55;;;;;;;;;18.25;16.50;;;;;;;;4991688;28;46250;-73
2021/09/19 03:45:24;;;;;;;;;11.75;11.75;;;;;;;;4993992;28;45433;-73
2021/09/19 03:47:49;;;;;;;;;15.00;13.25;;;;;;;;4991999;28;45447;-72
2021/09/19 03:50:14;;;;;;;;;15.00;14.00;;;;;;;;4991869;28;45371;-74
2021/09/19 03:52:39;;;;;;;;;13.00;12.00;;;;;;;;4990255;28;47198;-74
2021/09/19 03:55:05;;;;;;;;;14.50;12.75;;;;;;;;4990742;28;46450;-72
2021/09/19 03:57:30;;;;;;;;;11.50;11.50;;;;;;;;4993169;28;45450;-72
2021/09/19 03:59:55;;;;;;;;;14.50;11.25;;;;;;;;4991638;28;45406;-73
2021/09/19 04:02:21;;;;;;;;;18.25;14.00;;;;;;;;4991479;28;46122;-72
2021/09/19 04:04:46;;;;;;;;;15.25;11.50;;;;;;;;4991791;28;45437;-72
2021/09/19 04:07:11;;;;;;;;;12.00;10.75;;;;;;;;4989843;28;45334;-73
2021/09/19 04:09:36;;;;;;;;;11.25;11.25;;;;;;;;4993592;28;45348;-72
2021/09/19 04:12:02;;;;;;;;;12.75;12.75;;;;;;;;4991478;28;46884;-72
2021/09/19 04:14:27;;;;;;;;;14.00;11.75;;;;;;;;4991632;28;45166;-73
2021/09/19 04:16:52;;;;;;;;;11.75;10.25;;;;;;;;4973862;28;45334;-72
2021/09/19 04:19:18;;;;;;;;;11.00;10.50;;;;;;;;4991887;28;45306;-73
2021/09/19 04:21:43;;;;;;;;;12.00;11.25;;;;;;;;4992985;28;45515;-73
2021/09/19 04:24:08;;;;;;;;;14.00;11.75;;;;;;;;4991861;28;45469;-72
2021/09/19 04:26:33;;;;;;;;;11.50;11.50;;;;;;;;4973853;28;45505;-72
2021/09/19 04:28:58;;;;;;;;;15.25;15.00;;;;;;;;4991570;28;45333;-72
2021/09/19 04:31:24;;;;;;;;;11.00;11.00;;;;;;;;4989910;28;46311;-72
2021/09/19 04:33:49;;;;;;;;;12.00;12.00;;;;;;;;4992270;28;45366;-72
2021/09/19 04:36:14;;;;;;;;;12.75;12.75;;;;;;;;4991072;28;45244;-72
2021/09/19 04:38:39;;;;;;;;;12.50;12.50;;;;;;;;4991040;28;45236;-72
2021/09/19 04:41:05;;;;;;;;;17.75;13.75;;;;;;;;4990976;28;45946;-73
2021/09/19 04:43:30;;;;;;;;;15.50;12.50;;;;;;;;4972545;28;48618;-72
2021/09/19 04:45:55;;;;;;;;;10.50;9.75;;;;;;;;4991768;28;45518;-73
2021/09/19 04:48:22;;;;;;;;;13.50;12.25;;;;;;;;4993228;28;45474;-72
2021/09/19 04:50:47;;;;;;;;;14.75;13.50;;;;;;;;4991005;28;46119;-72
2021/09/19 04:53:12;;;;;;;;;14.00;14.00;;;;;;;;4990764;28;45486;-71
2021/09/19 04:55:38;;;;;;;;;13.75;13.75;;;;;;;;4991169;28;45358;-72
2021/09/19 04:58:03;;;;;;;;;12.25;12.25;;;;;;;;4991401;28;45568;-72
2021/09/19 05:00:28;;;;;;;;;11.75;9.25;;;;;;;;4993173;28;46841;-73
2021/09/19 05:02:53;;;;;;;;;14.75;14.75;;;;;;;;4990973;28;45586;-74
2021/09/19 05:05:19;;;;;;;;;12.25;11.25;;;;;;;;4990915;28;45541;-73
2021/09/19 05:07:44;;;;;;;;;16.25;15.75;;;;;;;;4990330;28;45302;-75
2021/09/19 05:10:09;;;;;;;;;13.75;12.75;;;;;;;;4989589;28;45268;-75
2021/09/19 05:12:35;;;;;;;;;11.25;10.25;;;;;;;;4992628;28;45428;-75
2021/09/19 05:15:00;;;;;;;;;11.00;11.00;;;;;;;;4989455;28;45291;-75
2021/09/19 05:17:25;;;;;;;;;11.00;9.50;;;;;;;;4991008;28;45332;-74
2021/09/19 05:19:50;;;;;;;;;14.00;12.50;;;;;;;;4990793;28;46216;-75
2021/09/19 05:22:15;;;;;;;;;14.25;12.75;;;;;;;;4990507;28;45402;-74
2021/09/19 05:24:41;;;;;;;;;12.75;11.25;;;;;;;;4992684;28;45267;-75
2021/09/19 05:27:06;;;;;;;;;16.25;14.75;;;;;;;;4990934;28;45331;-75
2021/09/19 05:29:31;;;;;;;;;16.50;15.50;;;;;;;;4990297;28;47077;-75
2021/09/19 05:31:56;;;;;;;;;12.25;11.00;;;;;;;;4989900;28;45467;-75
2021/09/19 05:34:22;;;;;;;;;14.00;13.00;;;;;;;;4990701;28;45511;-75
2021/09/19 05:36:47;;;;;;;;;13.00;10.50;;;;;;;;4991485;28;45438;-75
2021/09/19 05:39:12;;;;;;;;;14.25;13.00;;;;;;;;4990856;28;45275;-75
2021/09/19 05:41:37;;;;;;;;;12.25;10.75;;;;;;;;4990076;28;45331;-75
2021/09/19 05:44:03;;;;;;;;;16.50;15.00;;;;;;;;4990609;28;45390;-75
2021/09/19 05:46:28;;;;;;;;;15.50;14.00;;;;;;;;4972453;28;45644;-75
2021/09/19 05:48:53;;;;;;;;;15.25;13.00;;;;;;;;4990244;28;47374;-74
2021/09/19 05:51:21;;;;;;;;;13.25;12.00;;;;;;;;4989400;28;45454;-75
2021/09/19 05:53:46;;;;;;;;;12.75;11.75;;;;;;;;4988216;28;45473;-75
2021/09/19 05:56:11;;;;;;;;;12.50;9.50;;;;;;;;4989366;28;45415;-75
2021/09/19 05:58:37;;;;;;;;;22.50;18.00;;;;;;;;4989651;28;45731;-75
2021/09/19 06:01:02;;;;;;;;;16.75;14.50;;;;;;;;4989713;28;45414;-75
2021/09/19 06:03:27;;;;;;;;;14.50;14.00;;;;;;;;4991849;28;45400;-74
2021/09/19 06:05:52;;;;;;;;;13.75;12.50;;;;;;;;4989001;28;45401;-75
2021/09/19 06:08:18;;;;;;;;;15.00;15.00;;;;;;;;4989483;28;45461;-74
2021/09/19 06:10:43;;;;;;;;;14.25;12.50;;;;;;;;4989573;28;45355;-76
2021/09/19 06:13:08;;;;;;;;;15.00;15.00;;;;;;;;4989457;28;45576;-74
2021/09/19 06:15:34;;;;;;;;;11.50;11.25;;;;;;;;4991771;28;45479;-76
2021/09/19 06:18:00;;;;;;;;;14.50;13.75;;;;;;;;4989430;28;47273;-75
2021/09/19 06:20:25;;;;;;;;;15.75;13.50;;;;;;;;4988963;28;45452;-76
2021/09/19 06:22:50;;;;;;;;;13.75;13.75;;;;;;;;4989788;28;45513;-76
2021/09/19 06:25:15;;;;;;;;;14.50;14.00;;;;;;;;4988124;28;45353;-75
2021/09/19 06:27:41;;;;;;;;;15.25;13.25;;;;;;;;4991043;28;45462;-75
2021/09/19 06:30:07;;;;;;;;;16.75;15.50;;;;;;;;4987511;28;45539;-75
2021/09/19 06:32:32;;;;;;;;;16.00;13.00;;;;;;;;4987433;28;45359;-73
2021/09/19 06:34:57;;;;;;;;;9.50;9.50;;;;;;;;4988734;28;45387;-73
2021/09/19 06:37:23;;;;;;;;;16.50;16.00;;;;;;;;4989048;28;45339;-73
2021/09/19 06:39:48;;;;;;;;;16.75;14.50;;;;;;;;4989901;28;45685;-73
2021/09/19 06:42:14;;;;;;;;;15.00;15.00;;;;;;;;4989702;28;45495;-73
2021/09/19 06:44:39;;;;;;;;;14.25;13.25;;;;;;;;4989793;28;45524;-73
2021/09/19 06:47:04;;;;;;;;;11.50;10.50;;;;;;;;4973442;28;48162;-73
2021/09/19 06:49:29;;;;;;;;;15.50;13.25;;;;;;;;4991484;28;45443;-73
2021/09/19 06:51:54;;;;;;;;;15.50;15.00;;;;;;;;4992099;28;45264;-73
2021/09/19 06:54:20;;;;;;;;;14.00;13.00;;;;;;;;4993507;28;45390;-74
2021/09/19 06:56:47;;;;;;;;;15.50;15.50;;;;;;;;4991201;28;45644;-73
2021/09/19 06:59:13;;;;;;;;;14.00;13.75;;;;;;;;4991591;28;45568;-72
2021/09/19 07:01:38;;;;;;;;;15.25;13.75;;;;;;;;4991662;28;45577;-73
2021/09/19 07:04:03;;;;;;;;;17.50;15.00;;;;;;;;4991525;28;45442;-71
2021/09/19 07:06:28;;;;;;;;;17.25;15.00;;;;;;;;5004500;28;45937;-73
2021/09/19 07:08:54;;;;;;;;;14.50;14.25;;;;;;;;4989894;28;45407;-74
2021/09/19 07:11:19;;;;;;;;;15.75;15.00;;;;;;;;4990407;28;45680;-73
2021/09/19 07:13:44;;;;;;;;;20.75;18.75;;;;;;;;4973887;28;45831;-73
2021/09/19 07:16:09;;;;;;;;;15.25;13.50;;;;;;;;4991198;28;46338;-73
2021/09/19 07:18:34;;;;;;;;;20.75;16.25;;;;;;;;4993436;28;45503;-74
2021/09/19 07:21:00;;;;;;;;;13.00;11.75;;;;;;;;4991323;28;45516;-73
2021/09/19 07:23:25;;;;;;;;;13.75;13.75;;;;;;;;4991170;28;45350;-73
2021/09/19 07:25:50;;;;;;;;;16.25;15.00;;;;;;;;4991419;28;45517;-74
2021/09/19 07:28:16;;;;;;;;;16.50;13.50;;;;;;;;4991388;28;45355;-73
2021/09/19 07:30:41;;;;;;;;;15.50;15.25;;;;;;;;4993090;28;45358;-73
2021/09/19 07:33:07;;;;;;;;;15.75;15.75;;;;;;;;4991215;28;45540;-73
2021/09/19 07:35:33;;;;;;;;;16.75;16.75;;;;;;;;4991436;28;47312;-73
2021/09/19 07:37:58;;;;;;;;;13.75;11.50;;;;;;;;4973816;28;45371;-73
2021/09/19 07:40:23;;;;;;;;;16.75;14.50;;;;;;;;4991568;28;45486;-73
2021/09/19 07:42:49;;;;;;;;;16.75;14.50;;;;;;;;4992604;28;45475;-73
2021/09/19 07:45:14;;;;;;;;;16.00;14.75;;;;;;;;4991769;28;46510;-73
2021/09/19 07:47:40;;;;;;;;;17.00;17.00;;;;;;;;4988822;28;45524;-73
2021/09/19 07:50:06;;;;;;;;;21.75;19.50;;;;;;;;4989139;28;45422;-74
2021/09/19 07:52:31;;;;;;;;;20.75;17.50;;;;;;;;4991165;28;45386;-73
2021/09/19 07:54:57;;;;;;;;;17.00;16.50;;;;;;;;4988748;27;46233;-73
2021/09/19 07:57:22;;;;;;;;;13.00;11.00;;;;;;;;4992635;28;45396;-72
2021/09/19 07:59:49;;;;;;;;;18.75;17.50;;;;;;;;4990559;28;45399;-73
2021/09/19 08:02:14;;;;;;;;;13.25;13.25;;;;;;;;4990227;28;45481;-73
2021/09/19 08:04:39;;;;;;;;;18.25;15.50;;;;;;;;4990497;28;47185;-72
2021/09/19 08:07:04;;;;;;;;;17.50;17.50;;;;;;;;4990567;28;45498;-73
2021/09/19 08:09:32;;;;;;;;;13.00;13.00;;;;;;;;4992369;27;45579;-72
2021/09/19 08:12:00;;;;;;;;;16.25;12.50;;;;;;;;4992248;28;45360;-72
2021/09/19 08:14:28;;;;;;;;;12.50;11.25;;;;;;;;4992253;28;46443;-73
2021/09/19 08:16:57;;;;;;;;;16.25;15.00;;;;;;;;4991972;28;45237;-72
2021/09/19 08:19:24;;;;;;;;;15.50;15.00;;;;;;;;4992772;28;45478;-72
2021/09/19 08:21:52;;;;;;;;;14.50;14.25;;;;;;;;4993057;28;45334;-73
2021/09/19 08:24:20;;;;;;;;;12.75;11.25;;;;;;;;4993534;28;45348;-72
2021/09/19 08:26:47;;;;;;;;;14.75;12.00;;;;;;;;4990475;28;46816;-73
2021/09/19 08:29:15;;;;;;;;;13.00;13.00;;;;;;;;4991786;28;45409;-73
2021/09/19 08:31:43;;;;;;;;;12.50;11.75;;;;;;;;4992800;28;45425;-73
2021/09/19 08:34:10;;;;;;;;;16.00;12.50;;;;;;;;4992334;28;46199;-72
2021/09/19 08:36:37;;;;;;;;;12.00;10.25;;;;;;;;4994232;28;45482;-72
2021/09/19 08:39:09;;;;;;;;;16.25;13.50;;;;;;;;4991545;27;45578;-71
2021/09/19 08:41:35;;;;;;;;;15.00;15.00;;;;;;;;4991484;27;45448;-72
2021/09/19 08:44:00;;;;;;;;;12.50;11.00;;;;;;;;4989685;28;46435;-73
2021/09/19 08:46:26;;;;;;;;;11.50;11.50;;;;;;;;4989621;28;45477;-72
2021/09/19 08:48:51;;;;;;;;;12.25;12.25;;;;;;;;4990802;28;45888;-73
2021/09/19 08:51:16;;;;;;;;;11.75;11.00;;;;;;;;4991292;28;47878;-74
2021/09/19 08:53:42;;;;;;;;;11.50;10.50;;;;;;;;4989594;28;45432;-73
2021/09/19 08:56:07;;;;;;;;;14.75;10.75;;;;;;;;4989829;28;45489;-73
2021/09/19 08:58:33;;;;;;;;;10.50;9.50;;;;;;;;4989587;28;45386;-74
2021/09/19 09:00:59;;;;;;;;;16.75;15.50;;;;;;;;4989590;28;45483;-72
2021/09/19 09:03:25;;;;;;;;;10.25;10.25;;;;;;;;4991800;28;45308;-73
2021/09/19 09:06:01;;;;;;;;;12.50;12.50;;;;;;;;4988142;28;45229;-72
2021/09/19 09:08:26;;;;;;;;;16.00;13.50;;;;;;;;4987763;28;45375;-72
2021/09/19 09:10:53;;;;;;;;;16.25;14.00;;;;;;;;4989509;28;45395;-74
2021/09/19 09:13:23;;;;;;;;;16.25;14.25;;;;;;;;4989061;28;46162;-73
2021/09/19 09:15:50;;;;;;;;;9.75;9.75;;;;;;;;4990346;28;45387;-73
2021/09/19 09:18:27;;;;;;;;;13.75;13.75;;;;;;;;4990453;28;45373;-70
2021/09/19 09:20:57;;;;;;;;;15.50;9.75;;;;;;;;4988892;28;45489;-71
2021/09/19 09:23:23;;;;;;;;;13.25;13.25;;;;;;;;4988761;28;46189;-72
2021/09/19 09:26:07;;;;;;;;;13.50;12.50;;;;;;;;4988875;28;45516;-72
2021/09/19 09:28:40;;;;;;;;;12.00;10.00;;;;;;;;4988910;28;45369;-73
2021/09/19 09:31:05;;;;;;;;;14.00;12.25;;;;;;;;4989307;28;45540;-74
2021/09/19 09:33:31;;;;;;;;;13.75;10.50;;;;;;;;4990663;28;45376;-74
2021/09/19 09:35:56;;;;;;;;;14.00;14.00;;;;;;;;4988857;28;45479;-74
2021/09/19 09:38:22;;;;;;;;;17.25;16.00;;;;;;;;4989331;28;45552;-73
2021/09/19 09:40:48;;;;;;;;;10.75;10.75;;;;;;;;4989148;28;45809;-75
2021/09/19 09:43:14;;;;;;;;;16.25;14.50;;;;;;;;4986915;28;46189;-73
2021/09/19 09:45:41;;;;;;;;;14.75;13.25;;;;;;;;4991234;28;45451;-74
2021/09/19 09:48:30;;;;;;;;;17.75;13.25;;;;;;;;4987500;28;45443;-73
2021/09/19 09:50:55;;;;;;;;;21.25;20.25;;;;;;;;4988974;28;45484;-73
2021/09/19 09:53:24;;;;;;;;;13.75;13.00;;;;;;;;4988203;28;46152;-72
2021/09/19 09:55:50;;;;;;;;;16.00;12.50;;;;;;;;4988677;28;45533;-72
2021/09/19 09:58:18;;;;;;;;;13.25;13.25;;;;;;;;4988871;28;45352;-72
2021/09/19 10:00:44;;;;;;;;;12.00;11.50;;;;;;;;4990428;28;45180;-71
2021/09/19 10:03:10;;;;;;;;;12.50;12.25;;;;;;;;4987695;28;46392;-74
2021/09/19 10:05:35;;;;;;;;;14.25;12.75;;;;;;;;4987486;28;45596;-72
2021/09/19 10:08:00;;;;;;;;;12.75;12.75;;;;;;;;4989025;28;45303;-73
2021/09/19 10:10:27;;;;;;;;;13.25;12.00;;;;;;;;4989284;28;45484;-71
2021/09/19 10:12:53;;;;;;;;;13.25;12.50;;;;;;;;4988783;28;45904;-72
2021/09/19 10:15:19;;;;;;;;;19.50;18.25;;;;;;;;4987367;28;45426;-74
2021/09/19 10:17:44;;;;;;;;;15.25;13.75;;;;;;;;4988610;28;45677;-73
2021/09/19 10:20:12;;;;;;;;;16.00;12.75;;;;;;;;4991480;28;45466;-74
2021/09/19 10:22:43;;;;;;;;;14.75;14.25;;;;;;;;4990586;28;47044;-73
2021/09/19 10:25:27;;;;;;;;;13.75;12.00;;;;;;;;4990294;28;45552;-73
2021/09/19 10:28:12;;;;;;;;;15.25;15.25;;;;;;;;4990403;28;45406;-72
2021/09/19 10:30:37;;;;;;;;;15.75;13.25;;;;;;;;4993570;28;45339;-73
2021/09/19 10:33:22;;;;;;;;;14.25;12.75;;;;;;;;4990307;28;47142;-73
2021/09/19 10:35:49;;;;;;;;;12.75;12.75;;;;;;;;5029456;27;45374;-71
2021/09/19 10:38:33;;;;;;;;;14.75;14.25;;;;;;;;5026962;27;45372;-72
2021/09/19 10:41:14;;;;;;;;;13.25;13.25;;;;;;;;5028437;27;45533;-73
2021/09/19 10:43:53;;;;;;;;;13.75;13.75;;;;;;;;5022489;27;45655;-74
2021/09/19 10:46:34;;;;;;;;;12.75;11.25;;;;;;;;4959253;28;45485;-74
2021/09/19 10:49:13;;;;;;;;;10.00;10.00;;;;;;;;4991453;28;45344;-74
2021/09/19 10:51:57;;;;;;;;;11.75;11.75;;;;;;;;4988614;28;45368;-74
2021/09/19 10:54:54;;;;;;;;;14.00;12.50;;;;;;;;4990250;28;45532;-73
2021/09/19 10:57:27;;;;;;;;;14.00;12.75;;;;;;;;4919045;28;45464;-74
2021/09/19 11:00:12;;;;;;;;;10.75;10.75;;;;;;;;4920478;28;45544;-72
2021/09/19 11:02:39;;;;;;;;;18.25;14.25;;;;;;;;4920391;28;45649;-73
2021/09/19 11:05:23;;;;;;;;;12.50;12.50;;;;;;;;4922214;28;46184;-73
2021/09/19 11:07:49;;;;;;;;;17.25;14.75;;;;;;;;4930954;28;45506;-74
2021/09/19 11:10:14;;;;;;;;;13.75;13.50;;;;;;;;4916155;28;45353;-74
2021/09/19 11:12:41;;;;;;;;;14.25;14.25;;;;;;;;4916848;28;45372;-74
2021/09/19 11:15:07;;;;;;;;;11.00;11.00;;;;;;;;4919888;28;46423;-74
2021/09/19 11:17:34;;;;;;;;;11.00;11.00;;;;;;;;4919890;28;45295;-74
2021/09/19 11:20:14;;;;;;;;;11.33;10.00;;;;;;;;4920893;28;45502;-72
2021/09/19 11:22:46;;;;;;;;;12.50;12.50;;;;;;;;4919932;28;45356;-73
2021/09/19 11:25:12;;;;;;;;;13.67;10.00;;;;;;;;4930749;28;46277;-72
2021/09/19 11:27:38;;;;;;;;;12.67;10.33;;;;;;;;4931142;28;45522;-71
2021/09/19 11:30:04;;;;;;;;;11.00;11.00;;;;;;;;4919714;28;45406;-72
2021/09/19 11:32:30;;;;;;;;;12.67;12.67;;;;;;;;4938464;28;45447;-71
2021/09/19 11:34:55;;;;;;;;;13.33;11.33;;;;;;;;4981045;28;46349;-72
2021/09/19 11:37:20;;;;;;;;;16.50;16.25;;;;;;;;4990861;28;45351;-72
2021/09/19 11:39:46;;;;;;;;;12.50;11.25;;;;;;;;4991848;28;45413;-72
2021/09/19 11:42:13;;;;;;;;;11.00;11.00;;;;;;;;4990638;28;45335;-73
2021/09/19 11:44:43;;;;;;;;;14.75;12.25;;;;;;;;4988867;28;45309;-72
2021/09/19 11:47:11;;;;;;;;;10.50;10.50;;;;;;;;4990120;28;45465;-77
2021/09/19 11:49:39;;;;;;;;;13.50;11.75;;;;;;;;4972678;28;45507;-74
2021/09/19 11:52:04;;;;;;;;;13.75;12.50;;;;;;;;4972410;28;45249;-74
2021/09/19 11:54:30;;;;;;;;;12.00;10.00;;;;;;;;4991202;28;46543;-74
2021/09/19 11:56:56;;;;;;;;;11.25;11.25;;;;;;;;4989698;28;45541;-75
2021/09/19 11:59:21;;;;;;;;;12.50;12.50;;;;;;;;4988450;28;45365;-74
2021/09/19 12:01:47;;;;;;;;;12.75;11.00;;;;;;;;4990825;28;45278;-74
2021/09/19 12:04:13;;;;;;;;;11.00;11.00;;;;;;;;4990892;28;46327;-75
2021/09/19 12:06:41;;;;;;;;;17.75;17.75;;;;;;;;4988126;28;45455;-74
2021/09/19 12:09:16;;;;;;;;;12.00;12.00;;;;;;;;4990524;28;45446;-73
2021/09/19 12:11:43;;;;;;;;;17.25;17.25;;;;;;;;4990147;28;45431;-73
2021/09/19 12:14:13;;;;;;;;;14.50;12.00;;;;;;;;4989355;28;46264;-73
2021/09/19 12:16:39;;;;;;;;;12.50;12.50;;;;;;;;4989394;28;45335;-73
2021/09/19 12:19:04;;;;;;;;;14.25;12.25;;;;;;;;4989777;28;45427;-74
2021/09/19 12:21:31;;;;;;;;;10.25;10.00;;;;;;;;4990588;28;45435;-73
2021/09/19 12:23:58;;;;;;;;;14.00;13.50;;;;;;;;4988329;28;45485;-73
2021/09/19 12:26:25;;;;;;;;;14.75;12.25;;;;;;;;4989212;28;45512;-73
2021/09/19 12:28:58;;;;;;;;;11.50;11.00;;;;;;;;4989192;28;45658;-73
2021/09/19 12:31:35;;;;;;;;;13.00;12.00;;;;;;;;4990130;28;45381;-73
2021/09/19 12:34:01;;;;;;;;;10.50;9.50;;;;;;;;4990246;28;45518;-74
2021/09/19 12:36:28;;;;;;;;;11.00;11.00;;;;;;;;4991298;28;45584;-76
2021/09/19 12:38:54;;;;;;;;;13.00;12.00;;;;;;;;5005236;27;45513;-77
2021/09/19 12:41:20;;;;;;;;;10.75;10.50;;;;;;;;5026577;27;45273;-75
2021/09/19 12:43:46;;;;;;;;;13.25;13.25;;;;;;;;5039121;27;45446;-75
2021/09/19 12:46:13;;;;;;;;;10.50;10.50;;;;;;;;5031127;27;45520;-76
2021/09/19 12:48:38;;;;;;;;;12.75;12.75;;;;;;;;5057889;27;45454;-78
2021/09/19 12:51:04;;;;;;;;;13.75;13.75;;;;;;;;4992138;27;45572;-77
2021/09/19 12:53:31;;;;;;;;;14.25;13.25;;;;;;;;4989548;28;45629;-77
2021/09/19 12:55:58;;;;;;;;;17.75;17.75;;;;;;;;4988933;28;45723;-77
2021/09/19 12:58:23;;;;;;;;;13.75;12.75;;;;;;;;4988128;28;45363;-77
2021/09/19 13:00:50;;;;;;;;;15.75;14.00;;;;;;;;4990781;28;45629;-77
2021/09/19 13:03:18;;;;;;;;;13.25;11.50;;;;;;;;4990778;28;45464;-75
2021/09/19 13:05:44;;;;;;;;;15.50;15.25;;;;;;;;4988947;28;45495;-75
2021/09/19 13:08:09;;;;;;;;;14.25;13.25;;;;;;;;4972029;28;45437;-76
2021/09/19 13:10:35;;;;;;;;;14.00;12.00;;;;;;;;4989737;28;45374;-75
2021/09/19 13:13:01;;;;;;;;;13.50;13.50;;;;;;;;4989836;27;45422;-76
2021/09/19 13:15:27;;;;;;;;;11.75;11.75;;;;;;;;4991556;28;45744;-76
2021/09/19 13:17:53;;;;;;;;;10.00;10.00;;;;;;;;4993866;27;45540;-76
2021/09/19 13:20:19;;;;;;;;;12.25;11.00;;;;;;;;5024517;27;45489;-75
2021/09/19 13:22:44;;;;;;;;;13.75;12.75;;;;;;;;4989924;28;46119;-75
2021/09/19 13:25:10;;;;;;;;;12.50;12.50;;;;;;;;4989469;28;45435;-76
2021/09/19 13:27:35;;;;;;;;;13.75;13.75;;;;;;;;4991577;28;45319;-76
2021/09/19 13:30:01;;;;;;;;;13.75;12.75;;;;;;;;4989579;28;45512;-76
2021/09/19 13:32:26;;;;;;;;;12.50;11.50;;;;;;;;4971189;28;47645;-76
2021/09/19 13:34:52;;;;;;;;;11.75;10.50;;;;;;;;5013990;27;45440;-75
2021/09/19 13:37:19;;;;;;;;;10.75;10.75;;;;;;;;4987977;28;45450;-76
2021/09/19 13:39:45;;;;;;;;;12.25;12.00;;;;;;;;4991814;28;45376;-75
2021/09/19 13:42:10;;;;;;;;;11.75;11.75;;;;;;;;4988265;28;45387;-74
2021/09/19 13:44:36;;;;;;;;;10.00;10.00;;;;;;;;4989261;28;45459;-73
2021/09/19 13:47:02;;;;;;;;;10.25;9.25;;;;;;;;4989347;28;45299;-71
2021/09/19 13:49:28;;;;;;;;;10.33;9.33;;;;;;;;4988467;28;45473;-74
2021/09/19 13:51:54;;;;;;;;;10.25;10.25;;;;;;;;4989829;28;45897;-72
2021/09/19 13:54:20;;;;;;;;;10.67;10.67;;;;;;;;4990327;28;45387;-70
2021/09/19 13:56:48;;;;;;;;;10.75;10.75;;;;;;;;4988922;28;45490;-71
2021/09/19 13:59:17;;;;;;;;;12.25;11.50;;;;;;;;4989221;28;45406;-71
2021/09/19 14:01:42;;;;;;;;;12.00;12.00;;;;;;;;4988166;28;46405;-72
2021/09/19 14:04:08;;;;;;;;;9.00;9.00;;;;;;;;4988429;28;45259;-71
2021/09/19 14:06:34;;;;;;;;;12.00;11.75;;;;;;;;4990845;28;45374;-72
2021/09/19 14:09:01;;;;;;;;;12.25;11.00;;;;;;;;4988788;28;45332;-71
2021/09/19 14:11:27;;;;;;;;;13.75;12.75;;;;;;;;4987901;28;45455;-72
2021/09/19 14:13:52;;;;;;;;;9.75;9.75;;;;;;;;4987865;28;45656;-71
2021/09/19 14:16:17;;;;;;;;;13.00;11.00;;;;;;;;4987095;28;45327;-72
2021/09/19 14:18:43;;;;;;;;;11.75;11.25;;;;;;;;4989969;28;45606;-71
2021/09/19 14:21:08;;;;;;;;;10.00;10.00;;;;;;;;4987031;28;45942;-72